sensor_id;sensor_type;location;lat;lon;timestamp;P1;durP1;ratioP1;P2;durP2;ratioP2
16862;SDS011;52193;48.216;-1.698;2022-12-29T14:52:12;9.02;;;8.23;;
16862;SDS011;52193;48.216;-1.698;2022-12-29T14:54:45;9.13;;;8.32;;
16862;SDS011;52193;48.216;-1.698;2022-12-29T14:57:21;9.00;;;8.10;;
16862;SDS011;52193;48.216;-1.698;2022-12-29T14:59:54;9.30;;;8.50;;
16862;SDS011;52193;48.216;-1.698;2022-12-29T15:02:27;10.02;;;8.90;;
16862;SDS011;52193;48.216;-1.698;2022-12-29T15:05:00;8.90;;;8.20;;
16862;SDS011;52193;48.216;-1.698;2022-12-29T15:07:30;10.82;;;9.57;;
16862;SDS011;52193;48.216;-1.698;2022-12-29T15:10:01;10.00;;;9.00;;
16862;SDS011;52193;48.216;-1.698;2022-12-29T15:12:34;9.80;;;8.82;;
16862;SDS011;52193;48.216;-1.698;2022-12-29T15:15:16;11.95;;;10.30;;
16862;SDS011;52193;48.216;-1.698;2022-12-29T15:17:44;11.18;;;10.07;;
16862;SDS011;52193;48.216;-1.698;2022-12-29T15:20:17;11.38;;;10.02;;
16862;SDS011;52193;48.216;-1.698;2022-12-29T15:22:52;10.93;;;9.10;;
16862;SDS011;52193;48.216;-1.698;2022-12-29T15:25:21;10.15;;;9.13;;
16862;SDS011;52193;48.216;-1.698;2022-12-29T15:27:48;11.68;;;9.68;;
16862;SDS011;52193;48.216;-1.698;2022-12-29T15:30:17;9.88;;;8.82;;
16862;SDS011;52193;48.216;-1.698;2022-12-29T15:32:48;11.02;;;9.25;;
16862;SDS011;52193;48.216;-1.698;2022-12-29T15:35:27;11.95;;;9.27;;
16862;SDS011;52193;48.216;-1.698;2022-12-29T15:37:58;11.18;;;9.05;;
16862;SDS011;52193;48.216;-1.698;2022-12-29T15:40:27;14.50;;;10.32;;
16862;SDS011;52193;48.216;-1.698;2022-12-29T15:42:59;13.68;;;11.85;;
16862;SDS011;52193;48.216;-1.698;2022-12-29T15:45:44;23.77;;;16.67;;
16862;SDS011;52193;48.216;-1.698;2022-12-29T15:48:13;14.70;;;11.43;;
16862;SDS011;52193;48.216;-1.698;2022-12-29T15:50:46;16.77;;;11.68;;
16862;SDS011;52193;48.216;-1.698;2022-12-29T15:53:17;11.23;;;9.38;;
16862;SDS011;52193;48.216;-1.698;2022-12-29T15:55:49;11.15;;;8.90;;
16862;SDS011;52193;48.216;-1.698;2022-12-29T15:58:21;10.75;;;9.55;;
16862;SDS011;52193;48.216;-1.698;2022-12-29T16:00:50;10.10;;;9.07;;
16862;SDS011;52193;48.216;-1.698;2022-12-29T16:03:19;10.27;;;8.30;;
16862;SDS011;52193;48.216;-1.698;2022-12-29T16:05:52;10.32;;;8.50;;
16862;SDS011;52193;48.216;-1.698;2022-12-29T16:08:24;9.80;;;8.45;;
16862;SDS011;52193;48.216;-1.698;2022-12-29T16:10:59;10.77;;;8.30;;
16862;SDS011;52193;48.216;-1.698;2022-12-29T16:13:28;11.27;;;8.00;;
16862;SDS011;52193;48.216;-1.698;2022-12-29T16:15:59;9.02;;;8.13;;
16862;SDS011;52193;48.216;-1.698;2022-12-29T16:18:29;9.90;;;8.77;;
16862;SDS011;52193;48.216;-1.698;2022-12-29T16:21:05;10.02;;;9.13;;
16862;SDS011;52193;48.216;-1.698;2022-12-29T16:23:42;9.68;;;8.73;;
16862;SDS011;52193;48.216;-1.698;2022-12-29T16:26:15;9.20;;;8.40;;
16862;SDS011;52193;48.216;-1.698;2022-12-29T16:28:43;12.10;;;9.70;;
16862;SDS011;52193;48.216;-1.698;2022-12-29T16:31:17;12.00;;;8.55;;
16862;SDS011;52193;48.216;-1.698;2022-12-29T16:33:47;8.25;;;7.30;;
16862;SDS011;52193;48.216;-1.698;2022-12-29T16:36:26;8.45;;;7.38;;
16862;SDS011;52193;48.216;-1.698;2022-12-29T16:41:59;8.10;;;7.38;;
16862;SDS011;52193;48.216;-1.698;2022-12-29T16:44:26;7.85;;;7.10;;
16862;SDS011;52193;48.216;-1.698;2022-12-29T16:46:58;12.85;;;10.40;;
16862;SDS011;52193;48.216;-1.698;2022-12-29T16:49:32;8.15;;;7.35;;
16862;SDS011;52193;48.216;-1.698;2022-12-29T16:52:01;8.98;;;8.10;;
16862;SDS011;52193;48.216;-1.698;2022-12-29T16:54:40;7.97;;;7.30;;
16862;SDS011;52193;48.216;-1.698;2022-12-29T16:57:08;6.80;;;6.30;;
16862;SDS011;52193;48.216;-1.698;2022-12-29T16:59:36;7.13;;;6.38;;
16862;SDS011;52193;48.216;-1.698;2022-12-29T17:02:08;10.05;;;9.15;;
16862;SDS011;52193;48.216;-1.698;2022-12-29T17:04:40;9.80;;;9.00;;
16862;SDS011;52193;48.216;-1.698;2022-12-29T17:07:08;8.23;;;7.32;;
16862;SDS011;52193;48.216;-1.698;2022-12-29T17:09:42;7.90;;;7.22;;
16862;SDS011;52193;48.216;-1.698;2022-12-29T17:12:10;8.55;;;7.75;;
16862;SDS011;52193;48.216;-1.698;2022-12-29T17:14:41;9.18;;;8.20;;
16862;SDS011;52193;48.216;-1.698;2022-12-29T17:17:14;8.88;;;7.97;;
16862;SDS011;52193;48.216;-1.698;2022-12-29T17:19:44;9.85;;;8.85;;
16862;SDS011;52193;48.216;-1.698;2022-12-29T17:22:16;8.07;;;7.38;;
16862;SDS011;52193;48.216;-1.698;2022-12-29T17:24:46;9.82;;;8.98;;
16862;SDS011;52193;48.216;-1.698;2022-12-29T17:27:20;10.15;;;8.23;;
16862;SDS011;52193;48.216;-1.698;2022-12-29T17:29:50;10.02;;;8.13;;
16862;SDS011;52193;48.216;-1.698;2022-12-29T17:32:18;10.15;;;7.80;;
16862;SDS011;52193;48.216;-1.698;2022-12-29T17:34:45;8.43;;;7.63;;
16862;SDS011;52193;48.216;-1.698;2022-12-29T17:37:21;9.25;;;7.72;;
16862;SDS011;52193;48.216;-1.698;2022-12-29T17:40:01;8.25;;;7.45;;
16862;SDS011;52193;48.216;-1.698;2022-12-29T17:42:29;8.02;;;7.32;;
16862;SDS011;52193;48.216;-1.698;2022-12-29T17:44:59;8.93;;;8.13;;
16862;SDS011;52193;48.216;-1.698;2022-12-29T17:47:26;8.13;;;7.32;;
16862;SDS011;52193;48.216;-1.698;2022-12-29T17:49:53;9.05;;;8.15;;
16862;SDS011;52193;48.216;-1.698;2022-12-29T17:52:20;9.10;;;8.30;;
16862;SDS011;52193;48.216;-1.698;2022-12-29T17:54:48;8.30;;;7.55;;
16862;SDS011;52193;48.216;-1.698;2022-12-29T17:57:20;8.35;;;7.68;;
16862;SDS011;52193;48.216;-1.698;2022-12-29T17:59:47;8.70;;;7.95;;
16862;SDS011;52193;48.216;-1.698;2022-12-29T18:02:20;9.50;;;7.80;;
16862;SDS011;52193;48.216;-1.698;2022-12-29T18:04:50;7.88;;;7.28;;
16862;SDS011;52193;48.216;-1.698;2022-12-29T18:07:17;7.78;;;7.28;;
16862;SDS011;52193;48.216;-1.698;2022-12-29T18:09:44;9.15;;;8.35;;
16862;SDS011;52193;48.216;-1.698;2022-12-29T18:12:13;9.48;;;8.10;;
16862;SDS011;52193;48.216;-1.698;2022-12-29T18:14:53;11.23;;;7.88;;
16862;SDS011;52193;48.216;-1.698;2022-12-29T18:17:20;9.30;;;7.93;;
16862;SDS011;52193;48.216;-1.698;2022-12-29T18:19:47;8.52;;;7.82;;
16862;SDS011;52193;48.216;-1.698;2022-12-29T18:22:18;8.80;;;7.88;;
16862;SDS011;52193;48.216;-1.698;2022-12-29T18:24:46;8.88;;;8.00;;
16862;SDS011;52193;48.216;-1.698;2022-12-29T18:27:14;8.60;;;7.65;;
16862;SDS011;52193;48.216;-1.698;2022-12-29T18:29:44;8.80;;;7.97;;
16862;SDS011;52193;48.216;-1.698;2022-12-29T18:32:12;8.70;;;7.75;;
16862;SDS011;52193;48.216;-1.698;2022-12-29T18:34:39;10.23;;;7.78;;
16862;SDS011;52193;48.216;-1.698;2022-12-29T18:37:06;9.00;;;7.88;;
16862;SDS011;52193;48.216;-1.698;2022-12-29T18:39:34;9.02;;;8.13;;
16862;SDS011;52193;48.216;-1.698;2022-12-29T18:42:02;9.23;;;8.40;;
16862;SDS011;52193;48.216;-1.698;2022-12-29T18:44:29;8.52;;;7.72;;
16862;SDS011;52193;48.216;-1.698;2022-12-29T18:46:57;10.02;;;9.02;;
16862;SDS011;52193;48.216;-1.698;2022-12-29T18:49:25;9.68;;;8.77;;
16862;SDS011;52193;48.216;-1.698;2022-12-29T18:51:52;9.25;;;8.30;;
16862;SDS011;52193;48.216;-1.698;2022-12-29T18:54:26;8.43;;;7.72;;
16862;SDS011;52193;48.216;-1.698;2022-12-29T18:56:54;9.27;;;8.38;;
16862;SDS011;52193;48.216;-1.698;2022-12-29T18:59:22;9.35;;;8.07;;
16862;SDS011;52193;48.216;-1.698;2022-12-29T19:01:49;10.57;;;8.15;;
16862;SDS011;52193;48.216;-1.698;2022-12-29T19:04:18;8.95;;;8.05;;
16862;SDS011;52193;48.216;-1.698;2022-12-29T19:06:46;9.15;;;8.25;;
16862;SDS011;52193;48.216;-1.698;2022-12-29T19:09:13;9.27;;;8.38;;
16862;SDS011;52193;48.216;-1.698;2022-12-29T19:11:40;9.80;;;8.80;;
16862;SDS011;52193;48.216;-1.698;2022-12-29T19:14:08;9.48;;;8.57;;
16862;SDS011;52193;48.216;-1.698;2022-12-29T19:16:41;11.10;;;9.93;;
16862;SDS011;52193;48.216;-1.698;2022-12-29T19:19:10;11.13;;;10.00;;
16862;SDS011;52193;48.216;-1.698;2022-12-29T19:21:41;10.80;;;9.80;;
16862;SDS011;52193;48.216;-1.698;2022-12-29T19:24:09;11.85;;;9.32;;
16862;SDS011;52193;48.216;-1.698;2022-12-29T19:26:36;9.98;;;8.90;;
16862;SDS011;52193;48.216;-1.698;2022-12-29T19:29:04;10.15;;;8.25;;
16862;SDS011;52193;48.216;-1.698;2022-12-29T19:31:33;9.57;;;8.57;;
16862;SDS011;52193;48.216;-1.698;2022-12-29T19:34:02;10.23;;;8.13;;
16862;SDS011;52193;48.216;-1.698;2022-12-29T19:36:29;9.40;;;8.40;;
16862;SDS011;52193;48.216;-1.698;2022-12-29T19:38:58;10.77;;;9.25;;
16862;SDS011;52193;48.216;-1.698;2022-12-29T19:41:25;9.60;;;8.68;;
16862;SDS011;52193;48.216;-1.698;2022-12-29T19:43:52;12.88;;;9.25;;
16862;SDS011;52193;48.216;-1.698;2022-12-29T19:46:19;11.20;;;8.95;;
16862;SDS011;52193;48.216;-1.698;2022-12-29T19:48:47;11.95;;;9.10;;
16862;SDS011;52193;48.216;-1.698;2022-12-29T19:51:14;10.73;;;9.77;;
16862;SDS011;52193;48.216;-1.698;2022-12-29T19:53:42;10.23;;;9.32;;
16862;SDS011;52193;48.216;-1.698;2022-12-29T19:56:11;12.43;;;10.13;;
16862;SDS011;52193;48.216;-1.698;2022-12-29T19:58:39;10.80;;;9.75;;
16862;SDS011;52193;48.216;-1.698;2022-12-29T20:01:07;11.88;;;9.77;;
16862;SDS011;52193;48.216;-1.698;2022-12-29T20:03:36;11.45;;;10.25;;
16862;SDS011;52193;48.216;-1.698;2022-12-29T20:06:04;12.77;;;10.70;;
16862;SDS011;52193;48.216;-1.698;2022-12-29T20:08:31;12.45;;;11.35;;
16862;SDS011;52193;48.216;-1.698;2022-12-29T20:10:59;12.20;;;9.85;;
16862;SDS011;52193;48.216;-1.698;2022-12-29T20:13:29;14.30;;;11.20;;
16862;SDS011;52193;48.216;-1.698;2022-12-29T20:15:57;12.82;;;11.10;;
16862;SDS011;52193;48.216;-1.698;2022-12-29T20:18:25;11.38;;;10.32;;
16862;SDS011;52193;48.216;-1.698;2022-12-29T20:20:52;12.98;;;10.80;;
16862;SDS011;52193;48.216;-1.698;2022-12-29T20:23:19;12.95;;;11.43;;
16862;SDS011;52193;48.216;-1.698;2022-12-29T20:25:52;16.55;;;11.73;;
16862;SDS011;52193;48.216;-1.698;2022-12-29T20:28:20;12.48;;;11.40;;
16862;SDS011;52193;48.216;-1.698;2022-12-29T20:30:56;13.25;;;11.95;;
16862;SDS011;52193;48.216;-1.698;2022-12-29T20:33:24;12.27;;;11.07;;
16862;SDS011;52193;48.216;-1.698;2022-12-29T20:35:51;12.75;;;11.57;;
16862;SDS011;52193;48.216;-1.698;2022-12-29T20:38:18;12.90;;;11.63;;
16862;SDS011;52193;48.216;-1.698;2022-12-29T20:40:45;13.48;;;10.85;;
16862;SDS011;52193;48.216;-1.698;2022-12-29T20:43:13;14.07;;;11.10;;
16862;SDS011;52193;48.216;-1.698;2022-12-29T20:45:41;11.85;;;10.70;;
16862;SDS011;52193;48.216;-1.698;2022-12-29T20:48:09;12.43;;;10.25;;
16862;SDS011;52193;48.216;-1.698;2022-12-29T20:50:36;13.05;;;11.40;;
16862;SDS011;52193;48.216;-1.698;2022-12-29T20:53:04;13.00;;;11.65;;
16862;SDS011;52193;48.216;-1.698;2022-12-29T20:55:31;14.95;;;13.30;;
16862;SDS011;52193;48.216;-1.698;2022-12-29T20:57:58;17.48;;;14.20;;
16862;SDS011;52193;48.216;-1.698;2022-12-29T21:00:25;13.93;;;12.48;;
16862;SDS011;52193;48.216;-1.698;2022-12-29T21:02:54;13.88;;;11.95;;
16862;SDS011;52193;48.216;-1.698;2022-12-29T21:05:22;13.52;;;11.80;;
16862;SDS011;52193;48.216;-1.698;2022-12-29T21:07:49;13.35;;;10.68;;
16862;SDS011;52193;48.216;-1.698;2022-12-29T21:10:17;14.98;;;11.38;;
16862;SDS011;52193;48.216;-1.698;2022-12-29T21:12:44;13.55;;;11.27;;
16862;SDS011;52193;48.216;-1.698;2022-12-29T21:15:12;13.27;;;11.77;;
16862;SDS011;52193;48.216;-1.698;2022-12-29T21:17:39;16.52;;;12.30;;
16862;SDS011;52193;48.216;-1.698;2022-12-29T21:20:07;16.98;;;12.55;;
16862;SDS011;52193;48.216;-1.698;2022-12-29T21:22:36;19.58;;;13.55;;
16862;SDS011;52193;48.216;-1.698;2022-12-29T21:25:03;17.15;;;15.55;;
16862;SDS011;52193;48.216;-1.698;2022-12-29T21:27:31;15.57;;;13.15;;
16862;SDS011;52193;48.216;-1.698;2022-12-29T21:29:58;12.95;;;10.57;;
16862;SDS011;52193;48.216;-1.698;2022-12-29T21:32:25;12.63;;;10.20;;
16862;SDS011;52193;48.216;-1.698;2022-12-29T21:34:52;13.98;;;10.52;;
16862;SDS011;52193;48.216;-1.698;2022-12-29T21:37:19;15.70;;;10.45;;
16862;SDS011;52193;48.216;-1.698;2022-12-29T21:39:47;13.98;;;10.05;;
16862;SDS011;52193;48.216;-1.698;2022-12-29T21:42:14;20.17;;;11.07;;
16862;SDS011;52193;48.216;-1.698;2022-12-29T21:44:42;15.48;;;10.95;;
16862;SDS011;52193;48.216;-1.698;2022-12-29T21:47:26;14.35;;;11.38;;
16862;SDS011;52193;48.216;-1.698;2022-12-29T21:50:14;11.57;;;10.32;;
16862;SDS011;52193;48.216;-1.698;2022-12-29T21:52:41;13.13;;;10.55;;
16862;SDS011;52193;48.216;-1.698;2022-12-29T21:55:09;14.32;;;11.25;;
16862;SDS011;52193;48.216;-1.698;2022-12-29T21:57:36;13.80;;;10.68;;
16862;SDS011;52193;48.216;-1.698;2022-12-29T22:00:20;12.85;;;10.65;;
16862;SDS011;52193;48.216;-1.698;2022-12-29T22:03:05;15.55;;;11.02;;
16862;SDS011;52193;48.216;-1.698;2022-12-29T22:05:49;12.90;;;11.55;;
16862;SDS011;52193;48.216;-1.698;2022-12-29T22:08:34;12.73;;;11.35;;
16862;SDS011;52193;48.216;-1.698;2022-12-29T22:11:20;13.43;;;10.57;;
16862;SDS011;52193;48.216;-1.698;2022-12-29T22:14:04;13.25;;;10.18;;
16862;SDS011;52193;48.216;-1.698;2022-12-29T22:16:31;12.60;;;9.73;;
16862;SDS011;52193;48.216;-1.698;2022-12-29T22:18:58;11.80;;;9.70;;
16862;SDS011;52193;48.216;-1.698;2022-12-29T22:21:25;11.18;;;10.10;;
16862;SDS011;52193;48.216;-1.698;2022-12-29T22:23:52;13.02;;;9.65;;
16862;SDS011;52193;48.216;-1.698;2022-12-29T22:26:20;10.70;;;9.60;;
16862;SDS011;52193;48.216;-1.698;2022-12-29T22:28:47;12.75;;;10.88;;
16862;SDS011;52193;48.216;-1.698;2022-12-29T22:31:20;13.05;;;10.32;;
16862;SDS011;52193;48.216;-1.698;2022-12-29T22:33:51;13.93;;;10.45;;
16862;SDS011;52193;48.216;-1.698;2022-12-29T22:36:20;16.38;;;10.60;;
16862;SDS011;52193;48.216;-1.698;2022-12-29T22:38:47;14.02;;;10.65;;
16862;SDS011;52193;48.216;-1.698;2022-12-29T22:41:14;13.85;;;10.35;;
16862;SDS011;52193;48.216;-1.698;2022-12-29T22:43:42;15.55;;;10.88;;
16862;SDS011;52193;48.216;-1.698;2022-12-29T22:46:09;12.05;;;10.80;;
16862;SDS011;52193;48.216;-1.698;2022-12-29T22:48:37;12.07;;;9.90;;
16862;SDS011;52193;48.216;-1.698;2022-12-29T22:51:04;15.30;;;10.77;;
16862;SDS011;52193;48.216;-1.698;2022-12-29T22:53:31;20.92;;;12.32;;
16862;SDS011;52193;48.216;-1.698;2022-12-29T22:56:02;15.43;;;12.27;;
16862;SDS011;52193;48.216;-1.698;2022-12-29T22:58:29;16.20;;;12.43;;
16862;SDS011;52193;48.216;-1.698;2022-12-29T23:00:58;19.50;;;12.73;;
16862;SDS011;52193;48.216;-1.698;2022-12-29T23:03:25;13.50;;;11.75;;
16862;SDS011;52193;48.216;-1.698;2022-12-29T23:05:56;15.00;;;13.35;;
16862;SDS011;52193;48.216;-1.698;2022-12-29T23:08:23;15.82;;;14.13;;
16862;SDS011;52193;48.216;-1.698;2022-12-29T23:10:51;18.42;;;14.30;;
16862;SDS011;52193;48.216;-1.698;2022-12-29T23:13:18;22.38;;;16.77;;
16862;SDS011;52193;48.216;-1.698;2022-12-29T23:15:45;22.50;;;17.48;;
16862;SDS011;52193;48.216;-1.698;2022-12-29T23:18:14;17.42;;;13.27;;
16862;SDS011;52193;48.216;-1.698;2022-12-29T23:20:41;12.25;;;11.00;;
16862;SDS011;52193;48.216;-1.698;2022-12-29T23:23:08;12.18;;;10.95;;
16862;SDS011;52193;48.216;-1.698;2022-12-29T23:25:36;12.70;;;10.13;;
16862;SDS011;52193;48.216;-1.698;2022-12-29T23:28:03;13.07;;;9.63;;
16862;SDS011;52193;48.216;-1.698;2022-12-29T23:30:32;13.32;;;9.73;;
16862;SDS011;52193;48.216;-1.698;2022-12-29T23:32:59;11.35;;;9.45;;
16862;SDS011;52193;48.216;-1.698;2022-12-29T23:35:28;12.20;;;9.48;;
16862;SDS011;52193;48.216;-1.698;2022-12-29T23:37:55;10.65;;;9.40;;
16862;SDS011;52193;48.216;-1.698;2022-12-29T23:40:22;11.85;;;10.23;;
16862;SDS011;52193;48.216;-1.698;2022-12-29T23:42:49;11.88;;;9.07;;
16862;SDS011;52193;48.216;-1.698;2022-12-29T23:45:16;13.10;;;9.48;;
16862;SDS011;52193;48.216;-1.698;2022-12-29T23:47:43;11.90;;;9.80;;
16862;SDS011;52193;48.216;-1.698;2022-12-29T23:50:10;12.60;;;9.70;;
16862;SDS011;52193;48.216;-1.698;2022-12-29T23:52:38;12.25;;;9.10;;
16862;SDS011;52193;48.216;-1.698;2022-12-29T23:55:05;10.40;;;9.43;;
16862;SDS011;52193;48.216;-1.698;2022-12-29T23:57:33;15.32;;;9.60;;
